createdAt,value
2022-09-04T00:01:30.828Z,16.60
2022-09-04T00:06:57.876Z,16.50
2022-09-04T00:12:04.925Z,16.30
2022-09-04T00:17:14.609Z,16.30
2022-09-04T00:22:29.212Z,16.10
2022-09-04T00:27:43.581Z,16.00
2022-09-04T00:32:54.979Z,15.80
2022-09-04T00:38:05.359Z,15.80
2022-09-04T00:43:32.220Z,15.80
2022-09-04T00:49:12.499Z,15.60
2022-09-04T00:54:38.423Z,15.60
2022-09-04T01:00:06.170Z,15.30
2022-09-04T01:05:27.548Z,15.20
2022-09-04T01:10:40.815Z,15.10
2022-09-04T01:15:48.323Z,15.00
2022-09-04T01:21:08.019Z,14.90
2022-09-04T01:26:19.984Z,15.00
2022-09-04T01:31:31.642Z,14.90
2022-09-04T01:36:41.642Z,15.10
2022-09-04T01:41:53.823Z,15.20
2022-09-04T01:47:10.994Z,15.20
2022-09-04T01:52:30.710Z,15.00
2022-09-04T01:57:51.489Z,15.10
2022-09-04T02:03:00.476Z,14.90
2022-09-04T02:08:21.331Z,14.80
2022-09-04T02:13:35.982Z,14.70
2022-09-04T02:18:48.315Z,14.40
2022-09-04T02:24:04.813Z,14.40
2022-09-04T02:29:20.586Z,14.30
2022-09-04T02:34:33.896Z,14.20
2022-09-04T02:39:50.101Z,14.20
2022-09-04T02:45:09.824Z,14.20
2022-09-04T02:50:26.347Z,14.00
2022-09-04T02:55:45.594Z,14.00
2022-09-04T03:00:57.566Z,14.00
2022-09-04T03:06:06.145Z,13.90
2022-09-04T03:11:17.481Z,13.80
2022-09-04T03:16:27.642Z,13.80
2022-09-04T03:21:39.508Z,13.70
2022-09-04T03:26:47.056Z,13.70
2022-09-04T03:32:13.512Z,13.60
2022-09-04T03:37:33.170Z,13.40
2022-09-04T03:42:57.861Z,13.50
2022-09-04T03:48:21.630Z,13.50
2022-09-04T03:53:31.773Z,13.30
2022-09-04T03:58:46.066Z,13.30
2022-09-04T04:04:07.680Z,13.20
2022-09-04T04:09:36.218Z,13.20
2022-09-04T04:14:53.528Z,13.00
2022-09-04T04:20:10.835Z,13.00
2022-09-04T04:25:28.293Z,12.90
2022-09-04T04:30:43.443Z,12.90
2022-09-04T04:35:56.001Z,12.80
2022-09-04T04:41:11.713Z,12.70
2022-09-04T04:46:25.249Z,12.70
2022-09-04T04:51:50.179Z,12.70
2022-09-04T04:57:03.875Z,12.70
2022-09-04T05:02:19.156Z,12.80
2022-09-04T05:07:34.642Z,13.00
2022-09-04T05:12:45.929Z,12.90
2022-09-04T05:17:54.108Z,12.90
2022-09-04T05:23:05.543Z,13.00
2022-09-04T05:28:20.621Z,13.30
2022-09-04T05:33:31.749Z,13.50
2022-09-04T05:38:45.417Z,13.70
2022-09-04T05:44:07.980Z,13.90
2022-09-04T05:49:21.365Z,14.00
2022-09-04T05:54:49.434Z,14.30
2022-09-04T06:00:06.609Z,14.70
2022-09-04T06:05:27.793Z,16.00
2022-09-04T06:10:46.720Z,16.30
2022-09-04T06:16:03.654Z,17.50
2022-09-04T06:21:19.798Z,18.80
2022-09-04T06:26:46.194Z,20.20
2022-09-04T06:32:19.162Z,21.00
2022-09-04T06:37:34.682Z,20.30
2022-09-04T06:42:53.307Z,20.30
2022-09-04T06:48:13.381Z,21.60
2022-09-04T06:53:34.116Z,22.20
2022-09-04T06:59:00.546Z,22.80
2022-09-04T07:04:15.468Z,23.20
2022-09-04T07:09:21.970Z,23.70
2022-09-04T07:14:51.686Z,24.20
2022-09-04T07:20:17.135Z,23.10
2022-09-04T07:25:26.434Z,23.00
2022-09-04T07:30:36.986Z,23.60
2022-09-04T07:35:44.792Z,23.30
2022-09-04T07:40:53.330Z,22.80
2022-09-04T07:46:06.525Z,23.50
2022-09-04T07:51:15.617Z,23.30
2022-09-04T07:56:29.206Z,24.00
2022-09-04T08:01:53.486Z,23.50
2022-09-04T08:06:59.320Z,23.70
2022-09-04T08:12:25.702Z,24.60
2022-09-04T08:18:01.903Z,25.10
2022-09-04T08:23:26.397Z,24.60
2022-09-04T08:28:46.449Z,25.00
2022-09-04T08:34:43.644Z,24.40
2022-09-04T08:39:54.927Z,25.00
2022-09-04T08:45:49.955Z,25.40
2022-09-04T08:51:33.854Z,25.20
2022-09-04T08:56:45.138Z,25.70
2022-09-04T09:02:33.493Z,26.10
2022-09-04T09:08:13.679Z,26.50
2022-09-04T09:13:49.771Z,25.00
2022-09-04T09:19:22.825Z,25.30
2022-09-04T09:24:58.145Z,25.90
2022-09-04T09:30:07.990Z,25.00
2022-09-04T09:35:55.667Z,25.40
2022-09-04T09:41:34.235Z,25.50
2022-09-04T09:47:05.757Z,26.60
2022-09-04T09:52:32.718Z,25.90
2022-09-04T09:58:12.231Z,25.40
2022-09-04T10:03:46.813Z,25.80
2022-09-04T10:09:14.266Z,26.30
2022-09-04T10:14:56.968Z,26.20
2022-09-04T10:20:36.762Z,26.60
2022-09-04T10:26:29.277Z,26.30
2022-09-04T10:32:05.804Z,25.80
2022-09-04T10:37:28.517Z,26.00
2022-09-04T10:42:42.113Z,26.00
2022-09-04T10:48:28.793Z,25.80
2022-09-04T10:53:53.121Z,26.10
2022-09-04T10:59:23.302Z,26.30
2022-09-04T11:04:49.686Z,26.40
2022-09-04T11:10:11.030Z,26.40
2022-09-04T11:15:33.161Z,26.80
2022-09-04T11:20:59.344Z,26.40
2022-09-04T11:26:28.326Z,26.90
2022-09-04T11:31:48.426Z,26.50
2022-09-04T11:37:29.727Z,26.50
2022-09-04T11:42:41.410Z,27.10
2022-09-04T11:48:12.982Z,26.50
2022-09-04T11:53:32.704Z,26.40
2022-09-04T11:58:54.758Z,26.10
2022-09-04T12:04:24.601Z,27.30
2022-09-04T12:09:44.903Z,27.60
2022-09-04T12:15:09.579Z,27.30
2022-09-04T12:20:45.357Z,26.70
2022-09-04T12:26:18.066Z,27.00
2022-09-04T12:38:28.342Z,26.60
2022-09-04T12:43:45.299Z,26.90
2022-09-04T12:49:00.649Z,26.80
2022-09-04T12:54:20.564Z,26.80
2022-09-04T12:59:38.611Z,27.50
2022-09-04T13:04:49.990Z,27.50
2022-09-04T13:10:03.509Z,26.70
2022-09-04T13:15:21.781Z,26.50
2022-09-04T13:20:35.032Z,25.40
2022-09-04T13:25:52.591Z,25.90
2022-09-04T13:31:24.005Z,26.30
2022-09-04T13:36:40.198Z,25.40
2022-09-04T13:42:17.361Z,25.60
2022-09-04T13:47:32.512Z,25.40
2022-09-04T13:52:43.772Z,25.60
2022-09-04T13:57:57.593Z,25.30
2022-09-04T14:03:07.295Z,25.30
2022-09-04T14:08:16.252Z,25.20
2022-09-04T14:13:34.015Z,25.30
2022-09-04T14:18:59.353Z,26.50
2022-09-04T14:24:10.731Z,26.30
2022-09-04T14:29:27.085Z,25.40
2022-09-04T14:34:43.121Z,25.00
2022-09-04T14:39:55.193Z,24.60
2022-09-04T14:45:13.493Z,24.50
2022-09-04T14:50:19.569Z,25.20
2022-09-04T14:55:26.306Z,25.80
2022-09-04T15:00:34.304Z,26.20
2022-09-04T15:05:48.601Z,25.90
2022-09-04T15:10:57.240Z,26.00
2022-09-04T15:16:13.415Z,24.70
2022-09-04T15:21:25.381Z,24.40
2022-09-04T15:26:34.828Z,24.80
2022-09-04T15:31:41.890Z,25.10
2022-09-04T15:36:47.945Z,25.10
2022-09-04T15:41:51.749Z,24.90
2022-09-04T15:47:02.820Z,24.30
2022-09-04T15:52:24.165Z,24.20
2022-09-04T15:57:36.068Z,24.20
2022-09-04T16:02:54.575Z,23.80
2022-09-04T16:08:05.716Z,23.30
2022-09-04T16:13:37.781Z,23.30
2022-09-04T16:18:52.339Z,23.00
2022-09-04T16:23:59.797Z,23.10
2022-09-04T16:29:07.710Z,23.10
2022-09-04T16:34:22.002Z,22.70
2022-09-04T16:39:32.947Z,22.50
2022-09-04T16:44:40.906Z,22.30
2022-09-04T16:49:51.459Z,22.20
2022-09-04T16:55:02.573Z,22.00
2022-09-04T17:00:10.978Z,21.80
2022-09-04T17:05:27.873Z,21.70
2022-09-04T17:10:41.504Z,21.40
2022-09-04T17:15:53.249Z,21.30
2022-09-04T17:27:06.491Z,20.70
2022-09-04T17:29:10.936Z,20.40
2022-09-04T17:32:25.610Z,20.20
2022-09-04T17:40:47.088Z,20.20
2022-09-04T17:43:22.141Z,19.70
2022-09-04T17:48:30.843Z,19.30
2022-09-04T17:53:38.379Z,18.80
2022-09-04T17:58:49.021Z,18.30
2022-09-04T18:04:21.221Z,18.00
2022-09-04T18:09:32.206Z,17.70
2022-09-04T18:14:42.261Z,17.40
2022-09-04T18:19:47.801Z,17.20
2022-09-04T18:24:57.854Z,16.90
2022-09-04T18:33:16.192Z,16.70
2022-09-04T18:37:25.852Z,16.60
2022-09-04T18:44:11.850Z,16.40
2022-09-04T18:50:36.972Z,16.30
2022-09-04T18:52:17.530Z,16.20
2022-09-04T18:57:29.688Z,16.00
2022-09-04T19:02:43.853Z,16.00
2022-09-04T19:07:59.208Z,15.90
2022-09-04T19:13:08.277Z,15.70
2022-09-04T19:18:26.646Z,15.90
2022-09-04T19:23:35.786Z,16.00
2022-09-04T19:28:52.554Z,16.00
2022-09-04T19:34:04.097Z,15.90
2022-09-04T19:45:54.055Z,15.80
2022-09-04T19:46:14.127Z,15.80
2022-09-04T19:53:21.838Z,16.10
2022-09-04T19:55:46.374Z,16.10
2022-09-04T20:00:54.912Z,16.20
2022-09-04T20:06:05.258Z,16.20
2022-09-04T20:11:34.530Z,16.00
2022-09-04T20:16:44.375Z,15.90
2022-09-04T20:21:59.573Z,15.70
2022-09-04T20:27:10.460Z,15.50
2022-09-04T20:32:22.159Z,15.40
2022-09-04T20:37:32.776Z,15.20
2022-09-04T20:42:41.440Z,15.00
2022-09-04T20:52:42.391Z,14.80
2022-09-04T20:53:36.338Z,14.60
2022-09-04T21:03:12.660Z,14.50
2022-09-04T21:04:42.194Z,14.50
2022-09-04T21:09:59.854Z,14.40
2022-09-04T21:15:36.541Z,14.30
2022-09-04T21:21:00.074Z,14.30
2022-09-04T21:26:18.207Z,14.20
2022-09-04T21:31:44.244Z,14.40
2022-09-04T21:36:59.475Z,14.70
2022-09-04T21:42:29.150Z,14.80
2022-09-04T21:47:57.929Z,14.80
2022-09-04T21:53:18.931Z,14.70
2022-09-04T22:02:38.833Z,15.00
2022-09-04T22:04:29.433Z,15.00
2022-09-04T22:13:35.214Z,15.10
2022-09-04T22:15:29.497Z,14.90
2022-09-04T22:20:52.634Z,14.70
2022-09-04T22:26:25.058Z,14.60
2022-09-04T22:32:11.655Z,14.30
2022-09-04T22:37:51.520Z,14.20
2022-09-04T22:43:07.617Z,14.20
2022-09-04T22:48:35.877Z,14.70
2022-09-04T22:53:59.811Z,14.60
2022-09-04T22:59:35.638Z,14.90
2022-09-04T23:04:59.039Z,14.90
2022-09-04T23:13:51.500Z,15.00
2022-09-04T23:16:03.054Z,15.10
2022-09-04T23:26:35.343Z,15.00
2022-09-04T23:27:29.058Z,15.00
2022-09-04T23:32:53.862Z,15.20
2022-09-04T23:38:17.719Z,15.20
2022-09-04T23:43:46.056Z,15.30
2022-09-04T23:49:06.532Z,15.00
2022-09-04T23:54:34.441Z,14.90
2022-09-04T23:59:45.745Z,14.80
